This is the latest recevied weather packets stored in our database for station/object IU1TLK-10. If no packets are shown the sender has not sent any weather packets the latest 10 day(s).
| Time | Temp. | Humidity | Pressure | Rain* | Wind** | Luminosity | Snow |
|---|---|---|---|---|---|---|---|
| 1777457901 | 17.22° C | 51% | 1019.8 hPa | - | - | - | - |
| 1777456101 | 17.22° C | 53% | 1019.7 hPa | - | - | - | - |
| 1777454301 | 16.67° C | 54% | 1019.7 hPa | - | - | - | - |
| 1777452502 | 15° C | 59% | 1019.7 hPa | - | - | - | - |
| 1777450702 | 16.11° C | 59% | 1019.6 hPa | - | - | - | - |
| 1777448902 | 15° C | 64% | 1019.7 hPa | - | - | - | - |
| 1777447101 | 14.44° C | 64% | 1019.6 hPa | - | - | - | - |
| 1777445301 | 14.44° C | 67% | 1019.5 hPa | - | - | - | - |
| 1777443501 | 13.89° C | 70% | 1019.1 hPa | - | - | - | - |
| 1777441701 | 13.33° C | 67% | 1018.9 hPa | - | - | - | - |
| 1777439901 | 13.33° C | 67% | 1018.8 hPa | - | - | - | - |
| 1777438100 | 12.78° C | 70% | 1018.8 hPa | - | - | - | - |
| 1777436300 | 12.78° C | 70% | 1018.4 hPa | - | - | - | - |
| 1777434500 | 12.78° C | 70% | 1018.3 hPa | - | - | - | - |
| 1777432700 | 13.33° C | 70% | 1018.4 hPa | - | - | - | - |
| 1777430901 | 13.33° C | 70% | 1018.5 hPa | - | - | - | - |
| 1777429101 | 13.33° C | 70% | 1018.6 hPa | - | - | - | - |
| 1777427301 | 13.33° C | 71% | 1018.3 hPa | - | - | - | - |
| 1777425501 | 13.33° C | 69% | 1018.2 hPa | - | - | - | - |
| 1777423701 | 13.33° C | 68% | 1018.2 hPa | - | - | - | - |
| 1777421900 | 13.89° C | 67% | 1018.2 hPa | - | - | - | - |
| 1777420100 | 13.89° C | 69% | 1018.3 hPa | - | - | - | - |
| 1777418300 | 13.89° C | 69% | 1018.1 hPa | - | - | - | - |
| 1777416500 | 14.44° C | 67% | 1018 hPa | - | - | - | - |
| 1777414700 | 15° C | 67% | 1017.7 hPa | - | - | - | - |
* Rain since midnight (hover to see other rain measurements)
** Current wind speed in m/s (hover to see current wind gust speed)